Time;durP1;ratioP1;P1;durP2;ratioP2;P2;SDS_P1;SDS_P2;PMS_P1;PMS_P2;Temp;Humidity;BMP_temperature;BMP_pressure;BME280_temperature;BME280_humidity;BME280_pressure;Samples;Min_cycle;Max_cycle;Signal;HPM_P1;HPM_P2
2024/02/16 00:01:38;;;;;;;8.97;5.73;;;;;;;;;;4881159;29;20636;-81
2024/02/16 00:04:42;;;;;;;9.13;6.40;;;;;;;;;;4880830;29;20190;-81
2024/02/16 00:07:46;;;;;;;9.33;6.03;;;;;;;;;;4881348;29;20591;-81
2024/02/16 00:10:50;;;;;;;11.10;6.43;;;;;;;;;;4891156;29;20191;-81
2024/02/16 00:13:54;;;;;;;9.80;6.20;;;;;;;;;;4880513;29;20636;-81
2024/02/16 00:16:59;;;;;;;8.03;6.53;;;;;;;;;;4881190;29;20695;-81
2024/02/16 00:20:07;;;;;;;8.67;6.50;;;;;;;;;;4881021;29;20548;-81
2024/02/16 00:23:11;;;;;;;6.67;5.90;;;;;;;;;;4880658;29;20183;-81
2024/02/16 00:26:15;;;;;;;10.13;6.40;;;;;;;;;;4880823;29;20202;-81
2024/02/16 00:29:19;;;;;;;10.67;6.60;;;;;;;;;;4880406;29;20182;-81
2024/02/16 00:32:28;;;;;;;9.93;6.70;;;;;;;;;;4881678;29;20194;-81
2024/02/16 00:35:33;;;;;;;7.83;6.57;;;;;;;;;;4881336;29;20549;-80
2024/02/16 00:38:37;;;;;;;11.17;6.83;;;;;;;;;;4880257;29;20217;-81
2024/02/16 00:41:41;;;;;;;8.97;6.57;;;;;;;;;;4881255;29;20194;-80
2024/02/16 00:44:45;;;;;;;12.97;6.93;;;;;;;;;;4881838;29;20186;-81
2024/02/16 00:47:49;;;;;;;9.20;7.33;;;;;;;;;;4880900;29;20707;-81
2024/02/16 00:50:54;;;;;;;8.37;7.03;;;;;;;;;;4881283;29;20253;-81
2024/02/16 00:53:58;;;;;;;10.67;7.27;;;;;;;;;;4881170;29;20546;-81
2024/02/16 00:57:03;;;;;;;9.77;7.27;;;;;;;;;;4881548;29;20222;-81
2024/02/16 01:00:09;;;;;;;10.50;7.00;;;;;;;;;;4880491;29;20194;-81
2024/02/16 01:03:13;;;;;;;7.77;5.87;;;;;;;;;;4881069;29;20186;-81
2024/02/16 01:06:17;;;;;;;8.47;6.43;;;;;;;;;;4881401;29;20555;-81
2024/02/16 01:09:21;;;;;;;11.17;6.40;;;;;;;;;;4880537;29;20206;-81
2024/02/16 01:12:25;;;;;;;7.47;6.40;;;;;;;;;;4881458;29;20190;-81
2024/02/16 01:15:30;;;;;;;9.03;6.67;;;;;;;;;;4881617;29;20191;-81
2024/02/16 01:18:36;;;;;;;10.93;7.37;;;;;;;;;;4869711;29;20225;-81
2024/02/16 01:21:41;;;;;;;7.77;6.57;;;;;;;;;;4880966;29;20190;-81
2024/02/16 01:24:44;;;;;;;8.27;6.70;;;;;;;;;;4880624;29;20190;-80
2024/02/16 01:27:51;;;;;;;10.37;7.90;;;;;;;;;;4880327;29;20229;-80
2024/02/16 01:30:58;;;;;;;10.30;7.63;;;;;;;;;;4881216;29;20190;-85
2024/02/16 01:34:02;;;;;;;11.50;8.53;;;;;;;;;;4880154;29;20190;-84
2024/02/16 01:37:06;;;;;;;11.37;7.57;;;;;;;;;;4881656;29;20735;-84
2024/02/16 01:40:17;;;;;;;9.97;8.17;;;;;;;;;;4880400;29;20194;-84
2024/02/16 01:43:21;;;;;;;8.47;7.37;;;;;;;;;;4880434;29;20186;-84
2024/02/16 01:46:26;;;;;;;10.43;7.43;;;;;;;;;;4880113;29;20198;-84
2024/02/16 01:49:30;;;;;;;10.17;7.83;;;;;;;;;;4881857;29;20182;-84
2024/02/16 01:52:38;;;;;;;11.17;7.83;;;;;;;;;;4880905;29;20186;-84
2024/02/16 01:55:41;;;;;;;9.73;8.13;;;;;;;;;;4881059;29;20183;-84
2024/02/16 01:58:46;;;;;;;12.30;8.80;;;;;;;;;;4880135;29;20218;-84
2024/02/16 02:01:51;;;;;;;10.53;8.00;;;;;;;;;;4881037;29;20655;-84
2024/02/16 02:04:55;;;;;;;10.57;8.10;;;;;;;;;;4880466;29;20191;-84
2024/02/16 02:08:09;;;;;;;13.80;7.63;;;;;;;;;;4879490;29;20230;-84
2024/02/16 02:11:13;;;;;;;9.00;7.07;;;;;;;;;;4890668;29;20631;-84
2024/02/16 02:14:17;;;;;;;8.93;7.50;;;;;;;;;;4879982;29;20186;-84
2024/02/16 02:17:21;;;;;;;10.03;7.73;;;;;;;;;;4879445;29;20222;-84
2024/02/16 02:20:25;;;;;;;10.20;7.33;;;;;;;;;;4879794;29;20640;-84
2024/02/16 02:23:30;;;;;;;11.07;8.17;;;;;;;;;;4879733;29;20521;-84
2024/02/16 02:26:34;;;;;;;12.53;7.37;;;;;;;;;;4879102;29;20524;-83
2024/02/16 02:29:39;;;;;;;8.80;7.47;;;;;;;;;;4880928;29;20179;-84
2024/02/16 02:32:43;;;;;;;8.47;6.57;;;;;;;;;;4880740;29;20195;-84
2024/02/16 02:35:47;;;;;;;8.47;6.53;;;;;;;;;;4880243;29;20190;-84
2024/02/16 02:38:51;;;;;;;9.70;6.67;;;;;;;;;;4880936;29;20224;-84
2024/02/16 02:41:55;;;;;;;10.27;7.83;;;;;;;;;;4884184;29;20206;-84
2024/02/16 02:44:59;;;;;;;10.50;8.80;;;;;;;;;;4883080;29;20661;-84
2024/02/16 02:48:04;;;;;;;10.10;8.07;;;;;;;;;;4883251;29;20233;-84
2024/02/16 02:51:08;;;;;;;9.33;7.80;;;;;;;;;;4883173;29;20190;-84
2024/02/16 02:54:12;;;;;;;11.50;8.00;;;;;;;;;;4882277;29;20190;-84
2024/02/16 02:57:16;;;;;;;12.43;8.77;;;;;;;;;;4882259;29;20217;-84
2024/02/16 03:00:21;;;;;;;10.77;8.60;;;;;;;;;;4883755;29;20194;-84
2024/02/16 03:03:24;;;;;;;12.43;8.87;;;;;;;;;;4883384;29;20520;-84
2024/02/16 03:06:28;;;;;;;15.17;9.13;;;;;;;;;;4882260;29;20643;-84
2024/02/16 03:09:33;;;;;;;10.70;8.33;;;;;;;;;;4846639;28;1092336;-85
2024/02/16 03:12:37;;;;;;;12.63;9.00;;;;;;;;;;4884031;29;20193;-85
2024/02/16 03:15:41;;;;;;;10.47;7.13;;;;;;;;;;4883653;29;20186;-85
2024/02/16 03:18:45;;;;;;;12.57;7.00;;;;;;;;;;4884302;29;20226;-86
2024/02/16 03:21:50;;;;;;;9.23;7.57;;;;;;;;;;4872869;29;20632;-86
2024/02/16 03:24:56;;;;;;;13.10;8.43;;;;;;;;;;4883965;29;20551;-86
2024/02/16 03:28:00;;;;;;;12.67;9.07;;;;;;;;;;4882818;29;20225;-85
2024/02/16 03:31:05;;;;;;;11.23;8.73;;;;;;;;;;4883867;29;20187;-85
2024/02/16 03:34:09;;;;;;;10.17;8.83;;;;;;;;;;4883414;29;20186;-85
2024/02/16 03:37:13;;;;;;;10.87;8.50;;;;;;;;;;4883914;29;20229;-84
2024/02/16 03:40:18;;;;;;;9.00;6.83;;;;;;;;;;4883580;29;20186;-85
2024/02/16 03:43:22;;;;;;;9.93;7.40;;;;;;;;;;4882890;29;20190;-86
2024/02/16 03:46:27;;;;;;;11.67;9.20;;;;;;;;;;4893779;29;20186;-86
2024/02/16 03:49:31;;;;;;;9.53;7.30;;;;;;;;;;4883980;29;20213;-85
2024/02/16 03:52:35;;;;;;;11.10;7.57;;;;;;;;;;4883509;29;20190;-86
2024/02/16 03:55:39;;;;;;;11.07;8.60;;;;;;;;;;4882635;29;20190;-85
2024/02/16 03:58:43;;;;;;;12.43;8.57;;;;;;;;;;4882503;29;20222;-85
2024/02/16 04:01:48;;;;;;;9.83;7.80;;;;;;;;;;4883839;29;20636;-85
2024/02/16 04:04:53;;;;;;;10.87;8.47;;;;;;;;;;4872529;29;20190;-85
2024/02/16 04:08:01;;;;;;;10.73;8.50;;;;;;;;;;4883240;29;20225;-85
2024/02/16 04:11:06;;;;;;;12.20;9.03;;;;;;;;;;4883823;29;20513;-85
2024/02/16 04:14:11;;;;;;;12.80;8.57;;;;;;;;;;4883526;29;20190;-85
2024/02/16 04:17:15;;;;;;;13.03;9.27;;;;;;;;;;4883269;29;20234;-85
2024/02/16 04:20:20;;;;;;;13.73;8.93;;;;;;;;;;4882390;29;20186;-85
2024/02/16 04:23:24;;;;;;;12.73;9.13;;;;;;;;;;4883162;29;20194;-85
2024/02/16 04:26:28;;;;;;;11.13;8.97;;;;;;;;;;4882974;29;20524;-85
2024/02/16 04:29:32;;;;;;;11.80;9.00;;;;;;;;;;4881990;29;20563;-85
2024/02/16 04:32:36;;;;;;;13.77;9.70;;;;;;;;;;4883218;29;20191;-85
2024/02/16 04:35:40;;;;;;;14.30;10.50;;;;;;;;;;4882397;29;20190;-85
2024/02/16 04:38:45;;;;;;;11.60;9.07;;;;;;;;;;4882879;29;20217;-85
2024/02/16 04:41:49;;;;;;;12.33;9.77;;;;;;;;;;4881645;29;20532;-86
2024/02/16 04:44:54;;;;;;;13.60;8.80;;;;;;;;;;4871523;29;20195;-85
2024/02/16 04:48:02;;;;;;;12.27;8.90;;;;;;;;;;4882540;29;20225;-85
2024/02/16 04:51:06;;;;;;;11.10;7.47;;;;;;;;;;4882726;29;20183;-85
2024/02/16 04:54:11;;;;;;;10.80;8.03;;;;;;;;;;4882153;29;20195;-85
2024/02/16 04:57:15;;;;;;;11.60;7.93;;;;;;;;;;4870741;29;20221;-85
2024/02/16 05:00:19;;;;;;;10.27;7.60;;;;;;;;;;4882489;29;20183;-86
2024/02/16 05:03:24;;;;;;;9.77;7.97;;;;;;;;;;4881393;29;20198;-86
2024/02/16 05:06:28;;;;;;;11.57;8.63;;;;;;;;;;4882101;29;20186;-86
2024/02/16 05:09:33;;;;;;;13.20;8.50;;;;;;;;;;4880792;29;20572;-85
2024/02/16 05:12:37;;;;;;;12.03;8.67;;;;;;;;;;4891134;29;20186;-83
2024/02/16 05:15:42;;;;;;;12.83;9.50;;;;;;;;;;4881025;29;20186;-83
2024/02/16 05:18:47;;;;;;;12.03;8.83;;;;;;;;;;4881096;29;20217;-83
2024/02/16 05:21:51;;;;;;;11.43;9.00;;;;;;;;;;4881522;29;20620;-83
2024/02/16 05:24:56;;;;;;;12.07;8.60;;;;;;;;;;4881238;29;20190;-83
2024/02/16 05:28:01;;;;;;;14.80;9.20;;;;;;;;;;4880626;29;20226;-83
2024/02/16 05:31:17;;;;;;;10.87;9.13;;;;;;;;;;4880230;29;20194;-83
2024/02/16 05:34:21;;;;;;;16.17;10.30;;;;;;;;;;4891186;29;20191;-83
2024/02/16 05:37:25;;;;;;;14.10;10.70;;;;;;;;;;4879997;29;20226;-82
2024/02/16 05:40:43;;;;;;;14.63;11.73;;;;;;;;;;4880002;29;20183;-83
2024/02/16 05:43:48;;;;;;;15.73;10.47;;;;;;;;;;4880539;29;20183;-83
2024/02/16 05:46:52;;;;;;;13.93;10.83;;;;;;;;;;4881269;29;20194;-82
2024/02/16 05:49:58;;;;;;;17.13;9.83;;;;;;;;;;4880230;29;20211;-83
2024/02/16 05:53:03;;;;;;;13.80;9.80;;;;;;;;;;4880204;29;20521;-83
2024/02/16 05:56:07;;;;;;;12.90;9.90;;;;;;;;;;4879552;29;20190;-83
2024/02/16 05:59:12;;;;;;;13.33;9.43;;;;;;;;;;4879764;29;20178;-83
2024/02/16 06:02:17;;;;;;;15.00;11.63;;;;;;;;;;4880626;29;20531;-83
2024/02/16 06:05:21;;;;;;;12.13;8.87;;;;;;;;;;4880393;29;20191;-83
2024/02/16 06:08:25;;;;;;;11.40;8.90;;;;;;;;;;4879736;29;21091;-83
2024/02/16 06:11:30;;;;;;;12.93;8.60;;;;;;;;;;4879885;29;20186;-83
2024/02/16 06:14:34;;;;;;;11.10;9.03;;;;;;;;;;4879890;29;20198;-82
2024/02/16 06:17:40;;;;;;;10.73;8.50;;;;;;;;;;4879970;29;20230;-83
2024/02/16 06:20:45;;;;;;;11.90;9.00;;;;;;;;;;4879017;29;20194;-83
2024/02/16 06:23:49;;;;;;;12.13;9.03;;;;;;;;;;4879415;29;20186;-82
2024/02/16 06:26:54;;;;;;;12.13;9.13;;;;;;;;;;4879847;29;20230;-84
2024/02/16 06:29:58;;;;;;;11.50;9.03;;;;;;;;;;4868839;29;20214;-83
2024/02/16 06:33:02;;;;;;;11.87;9.50;;;;;;;;;;4879417;29;20194;-83
2024/02/16 06:36:07;;;;;;;13.50;10.33;;;;;;;;;;4890446;29;20183;-82
2024/02/16 06:39:16;;;;;;;15.37;11.13;;;;;;;;;;4879942;29;20187;-84
2024/02/16 06:42:20;;;;;;;19.23;13.57;;;;;;;;;;4889789;29;20525;-83
2024/02/16 06:45:25;;;;;;;118.10;66.17;;;;;;;;;;4878650;29;20202;-83
2024/02/16 06:48:29;;;;;;;49.07;30.90;;;;;;;;;;4879283;29;20233;-83
2024/02/16 06:51:34;;;;;;;16.83;12.93;;;;;;;;;;4881053;29;20647;-85
2024/02/16 06:54:38;;;;;;;14.73;11.30;;;;;;;;;;4880191;29;20190;-85
2024/02/16 06:57:43;;;;;;;15.30;10.93;;;;;;;;;;4881016;29;20217;-86
2024/02/16 07:00:47;;;;;;;16.47;11.43;;;;;;;;;;4881020;29;20190;-86
2024/02/16 07:03:51;;;;;;;18.03;12.47;;;;;;;;;;4881123;29;20190;-86
2024/02/16 07:06:56;;;;;;;13.57;11.53;;;;;;;;;;4870287;29;20221;-86
2024/02/16 07:09:59;;;;;;;19.70;13.50;;;;;;;;;;4880577;29;20699;-86
2024/02/16 07:13:03;;;;;;;15.57;11.77;;;;;;;;;;4880262;29;20186;-82
2024/02/16 07:16:08;;;;;;;16.77;11.70;;;;;;;;;;4878149;29;20190;-82
2024/02/16 07:19:12;;;;;;;16.60;11.87;;;;;;;;;;4879577;29;20624;-82
2024/02/16 07:22:16;;;;;;;16.30;11.90;;;;;;;;;;4880150;29;20190;-82
2024/02/16 07:25:20;;;;;;;15.47;11.57;;;;;;;;;;4880776;29;20191;-82
2024/02/16 07:28:24;;;;;;;14.63;11.20;;;;;;;;;;4871007;29;20683;-82
2024/02/16 07:31:34;;;;;;;18.33;11.63;;;;;;;;;;4881821;29;20183;-81
2024/02/16 07:34:38;;;;;;;18.73;13.03;;;;;;;;;;4881232;29;20190;-81
2024/02/16 07:37:43;;;;;;;15.90;10.47;;;;;;;;;;4880742;29;20225;-82
2024/02/16 07:40:47;;;;;;;15.87;10.70;;;;;;;;;;4881055;29;20178;-81
2024/02/16 07:43:51;;;;;;;16.00;10.93;;;;;;;;;;4881281;29;20194;-80
2024/02/16 07:46:56;;;;;;;12.30;9.40;;;;;;;;;;4881270;29;20222;-80
2024/02/16 07:50:00;;;;;;;12.07;9.47;;;;;;;;;;4881233;29;20214;-80
2024/02/16 07:53:04;;;;;;;15.07;9.37;;;;;;;;;;4880606;29;20186;-80
2024/02/16 07:56:09;;;;;;;14.37;9.17;;;;;;;;;;4879970;29;20194;-80
2024/02/16 07:59:12;;;;;;;13.63;8.80;;;;;;;;;;4879815;29;20783;-80
2024/02/16 08:02:17;;;;;;;15.10;10.17;;;;;;;;;;4881077;29;20190;-80
2024/02/16 08:05:22;;;;;;;12.20;9.37;;;;;;;;;;4881281;29;20194;-80
2024/02/16 08:08:26;;;;;;;15.20;10.87;;;;;;;;;;4880306;29;20234;-80
2024/02/16 08:11:30;;;;;;;17.87;10.40;;;;;;;;;;4880680;29;20195;-81
2024/02/16 08:14:34;;;;;;;15.10;10.73;;;;;;;;;;4880380;29;20550;-81
2024/02/16 08:17:39;;;;;;;11.83;9.57;;;;;;;;;;4879938;29;20229;-81
2024/02/16 08:20:43;;;;;;;14.60;10.73;;;;;;;;;;4879604;29;20183;-81
2024/02/16 08:23:47;;;;;;;12.33;9.30;;;;;;;;;;4880168;29;20655;-81
2024/02/16 08:26:53;;;;;;;14.33;9.33;;;;;;;;;;4879349;29;20194;-82
2024/02/16 08:29:57;;;;;;;11.93;9.03;;;;;;;;;;4880244;29;20210;-80
2024/02/16 08:33:01;;;;;;;15.43;8.63;;;;;;;;;;4880574;29;20191;-80
2024/02/16 08:36:07;;;;;;;8.17;7.33;;;;;;;;;;4880305;29;20186;-80
2024/02/16 08:39:13;;;;;;;10.03;8.07;;;;;;;;;;4879606;29;20182;-80
2024/02/16 08:42:17;;;;;;;9.23;7.50;;;;;;;;;;4880669;29;20190;-80
2024/02/16 08:45:21;;;;;;;8.07;7.17;;;;;;;;;;4880824;29;20525;-80
2024/02/16 08:48:25;;;;;;;11.60;7.43;;;;;;;;;;4880734;29;20218;-80
2024/02/16 08:51:31;;;;;;;8.40;6.50;;;;;;;;;;4881129;29;20178;-79
2024/02/16 08:54:35;;;;;;;11.70;7.57;;;;;;;;;;4880517;29;20186;-80
2024/02/16 08:57:39;;;;;;;9.00;7.23;;;;;;;;;;4880687;29;20225;-80
2024/02/16 09:00:44;;;;;;;10.50;7.20;;;;;;;;;;4881097;29;20178;-79
2024/02/16 09:03:48;;;;;;;9.77;7.00;;;;;;;;;;4880575;29;20521;-79
2024/02/16 09:06:51;;;;;;;9.57;7.37;;;;;;;;;;4881224;29;20206;-80
2024/02/16 09:09:56;;;;;;;13.10;9.67;;;;;;;;;;4880847;29;20241;-80
2024/02/16 09:13:00;;;;;;;11.30;8.27;;;;;;;;;;4881164;29;20194;-80
2024/02/16 09:16:04;;;;;;;8.40;7.20;;;;;;;;;;4880056;29;20190;-80
2024/02/16 09:19:09;;;;;;;7.43;6.23;;;;;;;;;;4881077;29;20187;-80
2024/02/16 09:22:13;;;;;;;6.93;6.23;;;;;;;;;;4880615;29;20191;-79
2024/02/16 09:25:18;;;;;;;9.30;5.83;;;;;;;;;;4881133;29;20186;-80
2024/02/16 09:28:22;;;;;;;6.30;5.53;;;;;;;;;;4880465;29;20226;-79
2024/02/16 09:31:26;;;;;;;6.43;5.57;;;;;;;;;;4880183;29;20218;-79
2024/02/16 09:34:30;;;;;;;6.40;5.53;;;;;;;;;;4879165;29;20190;-81
2024/02/16 09:37:35;;;;;;;6.77;5.03;;;;;;;;;;4877804;29;20222;-81
2024/02/16 09:40:40;;;;;;;7.63;5.40;;;;;;;;;;4879102;29;20190;-81
2024/02/16 09:43:44;;;;;;;6.27;5.63;;;;;;;;;;4879076;29;20185;-81
2024/02/16 09:46:48;;;;;;;9.03;5.53;;;;;;;;;;4878714;29;20190;-82
2024/02/16 09:49:52;;;;;;;6.33;5.03;;;;;;;;;;4878852;29;20564;-81
2024/02/16 09:52:57;;;;;;;7.20;5.53;;;;;;;;;;4878985;29;20186;-81
2024/02/16 09:56:01;;;;;;;8.80;5.30;;;;;;;;;;4878562;29;20190;-81
2024/02/16 09:59:07;;;;;;;5.87;5.27;;;;;;;;;;4878511;29;20186;-82
2024/02/16 10:02:11;;;;;;;6.67;5.40;;;;;;;;;;4879062;29;20182;-82
2024/02/16 10:05:17;;;;;;;6.70;4.73;;;;;;;;;;4878542;29;20186;-81
2024/02/16 10:08:21;;;;;;;6.80;5.43;;;;;;;;;;4878592;29;20233;-82
2024/02/16 10:11:30;;;;;;;6.60;5.60;;;;;;;;;;4877735;29;20214;-82
2024/02/16 10:14:34;;;;;;;6.13;4.87;;;;;;;;;;4878657;29;20182;-82
2024/02/16 10:17:38;;;;;;;9.43;5.57;;;;;;;;;;4878536;29;20226;-83
2024/02/16 10:20:44;;;;;;;9.30;5.40;;;;;;;;;;4878979;29;20182;-83
2024/02/16 10:24:00;;;;;;;6.80;5.20;;;;;;;;;;4878924;29;20190;-83
2024/02/16 10:27:17;;;;;;;6.77;5.00;;;;;;;;;;4878797;29;20222;-81
2024/02/16 10:30:23;;;;;;;6.77;5.17;;;;;;;;;;4888739;29;20218;-81
2024/02/16 10:33:31;;;;;;;6.07;4.90;;;;;;;;;;4878539;29;20191;-81
2024/02/16 10:36:37;;;;;;;10.03;5.53;;;;;;;;;;4878589;29;20190;-82
2024/02/16 10:39:42;;;;;;;8.87;5.47;;;;;;;;;;4877590;29;20195;-81
2024/02/16 10:42:46;;;;;;;7.80;5.20;;;;;;;;;;4878578;29;20190;-81
2024/02/16 10:45:52;;;;;;;6.90;5.30;;;;;;;;;;4878128;29;20190;-81
2024/02/16 10:48:57;;;;;;;7.20;5.30;;;;;;;;;;4878379;29;20221;-83
2024/02/16 10:52:05;;;;;;;6.43;5.50;;;;;;;;;;4878548;29;20652;-83
2024/02/16 10:55:11;;;;;;;7.33;5.70;;;;;;;;;;4878844;29;20183;-83
2024/02/16 10:58:19;;;;;;;8.50;5.27;;;;;;;;;;4878483;29;20252;-82
2024/02/16 11:01:23;;;;;;;6.03;4.80;;;;;;;;;;4880947;29;20179;-83
2024/02/16 11:04:38;;;;;;;9.20;4.93;;;;;;;;;;4880522;29;20190;-82
2024/02/16 11:07:42;;;;;;;9.50;4.93;;;;;;;;;;4881183;29;20222;-82
2024/02/16 11:10:59;;;;;;;6.83;5.00;;;;;;;;;;4881076;29;20210;-82
2024/02/16 11:14:14;;;;;;;7.63;4.77;;;;;;;;;;4881011;29;20187;-82
2024/02/16 11:17:23;;;;;;;8.13;5.10;;;;;;;;;;4880590;29;20222;-82
2024/02/16 11:20:28;;;;;;;6.43;4.60;;;;;;;;;;4880836;29;20632;-82
2024/02/16 11:23:35;;;;;;;8.53;5.07;;;;;;;;;;4880240;29;20541;-82
2024/02/16 11:26:44;;;;;;;6.93;4.93;;;;;;;;;;4890521;29;20190;-83
2024/02/16 11:29:49;;;;;;;6.13;4.63;;;;;;;;;;4880871;29;20190;-82
2024/02/16 11:32:53;;;;;;;5.60;4.67;;;;;;;;;;4868844;29;20187;-82
2024/02/16 11:36:03;;;;;;;8.93;4.40;;;;;;;;;;4880585;29;20190;-82
2024/02/16 11:39:16;;;;;;;7.17;4.43;;;;;;;;;;4880075;29;20182;-83
2024/02/16 11:42:19;;;;;;;6.87;4.43;;;;;;;;;;4879557;29;20190;-83
2024/02/16 11:45:24;;;;;;;5.73;4.23;;;;;;;;;;4879664;29;20186;-83
2024/02/16 11:48:28;;;;;;;7.37;4.63;;;;;;;;;;4880221;29;20222;-83
2024/02/16 11:51:32;;;;;;;5.00;4.27;;;;;;;;;;4857980;29;20691;-83
2024/02/16 11:54:39;;;;;;;6.13;3.77;;;;;;;;;;4869021;29;20186;-83
2024/02/16 11:57:48;;;;;;;9.27;4.63;;;;;;;;;;4869176;29;20230;-83
2024/02/16 12:00:52;;;;;;;7.40;6.70;;;;;;;;;;4879695;29;20624;-83
2024/02/16 12:03:56;;;;;;;6.13;4.13;;;;;;;;;;4880945;29;20182;-80
2024/02/16 12:07:02;;;;;;;5.33;4.40;;;;;;;;;;4880880;29;20233;-80
2024/02/16 12:10:07;;;;;;;6.33;3.83;;;;;;;;;;4880568;29;20213;-81
2024/02/16 12:13:11;;;;;;;5.37;3.70;;;;;;;;;;4880918;29;20186;-81
2024/02/16 12:16:18;;;;;;;7.27;3.53;;;;;;;;;;4879955;29;20191;-80
2024/02/16 12:19:22;;;;;;;4.80;3.40;;;;;;;;;;4881388;29;20187;-81
2024/02/16 12:22:28;;;;;;;5.63;3.40;;;;;;;;;;4881112;29;20179;-81
2024/02/16 12:25:32;;;;;;;5.47;3.57;;;;;;;;;;4886466;29;20533;-82
2024/02/16 12:28:37;;;;;;;6.30;4.10;;;;;;;;;;4884309;29;20230;-82
2024/02/16 12:31:42;;;;;;;5.30;3.80;;;;;;;;;;4883500;29;20218;-82
2024/02/16 12:34:47;;;;;;;7.90;3.97;;;;;;;;;;4883430;29;20190;-82
2024/02/16 12:37:52;;;;;;;4.63;4.00;;;;;;;;;;4884147;29;20225;-83
2024/02/16 12:40:56;;;;;;;8.27;4.63;;;;;;;;;;4885212;29;20186;-81
2024/02/16 12:44:01;;;;;;;9.23;5.27;;;;;;;;;;4886024;29;20194;-81
2024/02/16 12:47:06;;;;;;;6.90;4.60;;;;;;;;;;4885947;29;20691;-80
2024/02/16 12:50:10;;;;;;;5.67;4.07;;;;;;;;;;4886269;29;20194;-80
2024/02/16 12:53:14;;;;;;;4.63;3.60;;;;;;;;;;4886659;29;20183;-81
2024/02/16 12:56:20;;;;;;;4.07;3.53;;;;;;;;;;4886031;29;20186;-81
2024/02/16 12:59:24;;;;;;;5.13;3.53;;;;;;;;;;4885955;29;20190;-81
2024/02/16 13:02:29;;;;;;;6.37;3.43;;;;;;;;;;4886589;29;20179;-80
2024/02/16 13:05:33;;;;;;;3.90;3.50;;;;;;;;;;4887294;29;20186;-80
2024/02/16 13:08:37;;;;;;;5.03;3.50;;;;;;;;;;4886626;29;20238;-81
2024/02/16 13:11:42;;;;;;;4.07;3.43;;;;;;;;;;4887327;29;20214;-80
2024/02/16 13:14:46;;;;;;;5.93;3.67;;;;;;;;;;4888349;29;20529;-80
2024/02/16 13:17:50;;;;;;;5.70;3.27;;;;;;;;;;4890230;29;20225;-81
2024/02/16 13:20:55;;;;;;;6.07;3.60;;;;;;;;;;4888395;29;20195;-81
2024/02/16 13:23:59;;;;;;;6.33;3.53;;;;;;;;;;4886875;29;20538;-81
2024/02/16 13:27:05;;;;;;;7.10;3.80;;;;;;;;;;4887454;29;20229;-81
2024/02/16 13:30:09;;;;;;;7.30;3.77;;;;;;;;;;4887003;29;20190;-81
2024/02/16 13:33:13;;;;;;;5.93;3.80;;;;;;;;;;4886831;29;20648;-81
2024/02/16 13:36:17;;;;;;;8.63;4.70;;;;;;;;;;4886693;29;20190;-81
2024/02/16 13:39:22;;;;;;;49.37;35.17;;;;;;;;;;4886126;29;20187;-81
2024/02/16 13:42:28;;;;;;;118.70;62.63;;;;;;;;;;4886521;29;20655;-81
2024/02/16 13:45:50;;;;;;;16.10;10.87;;;;;;;;;;4885967;29;20194;-81
2024/02/16 13:48:54;;;;;;;6.93;4.67;;;;;;;;;;4885619;29;20231;-81
2024/02/16 13:51:58;;;;;;;9.10;4.03;;;;;;;;;;4885685;29;20210;-81
2024/02/16 13:55:06;;;;;;;7.57;3.70;;;;;;;;;;4885904;29;20186;-80
2024/02/16 13:58:11;;;;;;;5.07;3.30;;;;;;;;;;4886474;29;20222;-81
2024/02/16 14:01:15;;;;;;;5.63;3.40;;;;;;;;;;4885268;29;20187;-81
2024/02/16 14:04:21;;;;;;;4.50;3.60;;;;;;;;;;4883719;29;20194;-81
2024/02/16 14:07:25;;;;;;;5.33;3.50;;;;;;;;;;4893235;29;20568;-81
2024/02/16 14:10:29;;;;;;;6.70;3.87;;;;;;;;;;4884213;29;20632;-81
2024/02/16 14:13:34;;;;;;;5.50;3.67;;;;;;;;;;4883501;29;20182;-81
2024/02/16 14:16:40;;;;;;;5.57;4.20;;;;;;;;;;4881906;29;20632;-81
2024/02/16 14:19:44;;;;;;;9.47;4.30;;;;;;;;;;4882624;29;20533;-80
2024/02/16 14:22:48;;;;;;;7.33;4.20;;;;;;;;;;4883347;29;20186;-81
2024/02/16 14:25:52;;;;;;;8.93;4.10;;;;;;;;;;4882757;29;20190;-81
2024/02/16 14:28:57;;;;;;;7.30;4.07;;;;;;;;;;4882254;29;20572;-81
2024/02/16 14:32:01;;;;;;;7.27;4.30;;;;;;;;;;4872370;29;20218;-80
2024/02/16 14:35:06;;;;;;;6.13;4.07;;;;;;;;;;4883408;29;20186;-82
2024/02/16 14:38:12;;;;;;;6.60;3.97;;;;;;;;;;4884006;29;20229;-82
2024/02/16 14:41:17;;;;;;;6.03;4.53;;;;;;;;;;4883642;29;20183;-82
2024/02/16 14:44:21;;;;;;;5.03;3.97;;;;;;;;;;4884411;29;20194;-82
2024/02/16 14:47:25;;;;;;;5.23;4.40;;;;;;;;;;4884181;29;20230;-82
2024/02/16 14:50:29;;;;;;;13.23;4.30;;;;;;;;;;4871873;29;20194;-82
2024/02/16 14:53:33;;;;;;;7.63;4.60;;;;;;;;;;4871850;29;20178;-82
2024/02/16 14:56:38;;;;;;;6.43;4.27;;;;;;;;;;4871157;29;20194;-82
2024/02/16 14:59:42;;;;;;;11.43;4.30;;;;;;;;;;4883207;29;20186;-81
2024/02/16 15:02:47;;;;;;;16.67;4.83;;;;;;;;;;4882869;29;20631;-79
2024/02/16 15:05:51;;;;;;;6.83;4.90;;;;;;;;;;4882006;29;20186;-80
2024/02/16 15:08:55;;;;;;;7.80;4.30;;;;;;;;;;4882243;29;20233;-80
2024/02/16 15:11:59;;;;;;;6.20;3.80;;;;;;;;;;4881919;29;20214;-81
2024/02/16 15:15:04;;;;;;;7.50;4.70;;;;;;;;;;4882759;29;20190;-81
2024/02/16 15:18:08;;;;;;;5.43;4.30;;;;;;;;;;4882182;29;20229;-83
2024/02/16 15:21:12;;;;;;;9.33;4.87;;;;;;;;;;4881612;29;20191;-83
2024/02/16 15:24:16;;;;;;;7.43;4.97;;;;;;;;;;4881378;29;20253;-82
2024/02/16 15:27:20;;;;;;;5.80;4.50;;;;;;;;;;4881262;29;20222;-83
2024/02/16 15:30:26;;;;;;;8.40;5.60;;;;;;;;;;4859909;29;20194;-83
2024/02/16 15:33:32;;;;;;;7.40;5.37;;;;;;;;;;4881890;29;20183;-83
2024/02/16 15:36:39;;;;;;;8.80;5.43;;;;;;;;;;4870260;29;20187;-84
2024/02/16 15:39:45;;;;;;;7.97;5.80;;;;;;;;;;4870915;29;20191;-83
2024/02/16 15:43:03;;;;;;;8.47;5.70;;;;;;;;;;4881131;29;20178;-82
2024/02/16 15:46:08;;;;;;;7.33;5.17;;;;;;;;;;4892170;29;20183;-83
2024/02/16 15:49:12;;;;;;;6.53;5.73;;;;;;;;;;4882858;29;20190;-82
2024/02/16 15:52:17;;;;;;;11.43;5.63;;;;;;;;;;4882915;29;20218;-82
2024/02/16 15:55:21;;;;;;;9.53;5.97;;;;;;;;;;4883256;29;20186;-83
2024/02/16 15:58:25;;;;;;;8.60;5.57;;;;;;;;;;4882262;29;20222;-82
2024/02/16 16:01:32;;;;;;;8.10;5.87;;;;;;;;;;4882032;29;20190;-82
2024/02/16 16:04:36;;;;;;;8.03;5.87;;;;;;;;;;4881816;29;20194;-83
2024/02/16 16:07:40;;;;;;;8.27;5.80;;;;;;;;;;4882334;29;20222;-83
2024/02/16 16:10:45;;;;;;;9.50;5.73;;;;;;;;;;4881447;29;20183;-83
2024/02/16 16:13:49;;;;;;;12.10;6.13;;;;;;;;;;4882143;29;20183;-82
2024/02/16 16:16:53;;;;;;;9.13;5.80;;;;;;;;;;4891848;29;20182;-85
2024/02/16 16:19:57;;;;;;;14.23;5.97;;;;;;;;;;4881382;29;20194;-82
2024/02/16 16:23:01;;;;;;;10.53;5.77;;;;;;;;;;4881227;29;20187;-82
2024/02/16 16:26:06;;;;;;;6.80;5.07;;;;;;;;;;4881031;29;20194;-82
2024/02/16 16:29:10;;;;;;;8.80;5.87;;;;;;;;;;4880068;29;20190;-82
2024/02/16 16:32:15;;;;;;;12.73;5.67;;;;;;;;;;4881620;29;20218;-82
2024/02/16 16:35:19;;;;;;;8.37;5.77;;;;;;;;;;4881040;29;20187;-81
2024/02/16 16:38:23;;;;;;;6.83;5.27;;;;;;;;;;4880774;29;20226;-80
2024/02/16 16:41:27;;;;;;;8.30;5.33;;;;;;;;;;4880841;29;20194;-81
2024/02/16 16:44:32;;;;;;;11.30;6.63;;;;;;;;;;4880771;29;20186;-82
2024/02/16 16:47:36;;;;;;;8.37;5.67;;;;;;;;;;4880738;29;20556;-82
2024/02/16 16:50:40;;;;;;;15.60;6.30;;;;;;;;;;4880653;29;20198;-80
2024/02/16 16:53:44;;;;;;;10.93;6.07;;;;;;;;;;4880000;29;20210;-80
2024/02/16 16:56:49;;;;;;;9.00;6.37;;;;;;;;;;4879741;29;20561;-81
2024/02/16 16:59:53;;;;;;;7.43;5.20;;;;;;;;;;4869047;29;20194;-80
2024/02/16 17:02:59;;;;;;;8.20;5.83;;;;;;;;;;4880883;29;20187;-81
2024/02/16 17:06:05;;;;;;;6.83;5.87;;;;;;;;;;4880078;29;20186;-82
2024/02/16 17:09:09;;;;;;;7.47;5.50;;;;;;;;;;4880026;29;20214;-81
2024/02/16 17:12:14;;;;;;;10.70;6.17;;;;;;;;;;4880220;29;20213;-81
2024/02/16 17:15:18;;;;;;;9.43;6.60;;;;;;;;;;4880164;29;20182;-80
2024/02/16 17:18:22;;;;;;;11.53;7.00;;;;;;;;;;4879403;29;20222;-81
2024/02/16 17:21:26;;;;;;;13.90;7.17;;;;;;;;;;4879381;29;20194;-80
2024/02/16 17:24:31;;;;;;;9.03;5.77;;;;;;;;;;4880208;29;20521;-80
2024/02/16 17:27:35;;;;;;;9.70;6.47;;;;;;;;;;4880054;29;20222;-80
2024/02/16 17:30:42;;;;;;;8.07;6.03;;;;;;;;;;4879870;29;20186;-80
2024/02/16 17:33:46;;;;;;;8.20;6.37;;;;;;;;;;4878594;29;20214;-80
2024/02/16 17:36:51;;;;;;;9.33;6.40;;;;;;;;;;4879865;29;20190;-80
2024/02/16 17:39:55;;;;;;;10.10;5.80;;;;;;;;;;4879610;29;20190;-80
2024/02/16 17:42:59;;;;;;;11.40;5.87;;;;;;;;;;4879750;29;20628;-80
2024/02/16 17:46:03;;;;;;;8.53;5.60;;;;;;;;;;4879557;29;20194;-80
2024/02/16 17:49:07;;;;;;;10.50;6.97;;;;;;;;;;4879863;29;20194;-80
2024/02/16 17:52:12;;;;;;;9.57;6.67;;;;;;;;;;4879980;29;20214;-80
2024/02/16 17:55:15;;;;;;;7.77;6.00;;;;;;;;;;4879106;29;20631;-80
2024/02/16 17:58:19;;;;;;;9.83;5.97;;;;;;;;;;4878714;29;20222;-80
2024/02/16 18:01:24;;;;;;;7.53;6.10;;;;;;;;;;4879548;29;20533;-80
2024/02/16 18:04:28;;;;;;;9.80;6.50;;;;;;;;;;4879515;29;20182;-81
2024/02/16 18:07:33;;;;;;;10.57;7.60;;;;;;;;;;4879853;29;20710;-81
2024/02/16 18:10:37;;;;;;;10.43;6.60;;;;;;;;;;4879442;29;20190;-81
2024/02/16 18:13:41;;;;;;;7.30;5.93;;;;;;;;;;4879227;29;20218;-81
2024/02/16 18:16:46;;;;;;;9.10;6.40;;;;;;;;;;4879542;29;20632;-81
2024/02/16 18:19:51;;;;;;;8.10;6.00;;;;;;;;;;4880209;29;20186;-81